sensor_id;sensor_type;location;lat;lon;timestamp;pressure;altitude;pressure_sealevel;temperature;humidity
56084;BME280;41958;52.416;13.428;2022-11-06T00:00:15;101323.88;;;4.85;100.00
56084;BME280;41958;52.416;13.428;2022-11-06T00:02:41;101325.09;;;4.79;100.00
56084;BME280;41958;52.416;13.428;2022-11-06T00:05:07;101321.22;;;4.80;100.00
56084;BME280;41958;52.416;13.428;2022-11-06T00:07:51;101319.25;;;4.81;100.00
56084;BME280;41958;52.416;13.428;2022-11-06T00:10:17;101309.59;;;4.78;100.00
56084;BME280;41958;52.416;13.428;2022-11-06T00:12:43;101324.84;;;4.76;100.00
56084;BME280;41958;52.416;13.428;2022-11-06T00:15:08;101298.78;;;4.58;100.00
56084;BME280;41958;52.416;13.428;2022-11-06T00:17:34;101323.41;;;4.59;100.00
56084;BME280;41958;52.416;13.428;2022-11-06T00:20:00;101322.63;;;4.53;100.00
56084;BME280;41958;52.416;13.428;2022-11-06T00:22:25;101324.34;;;4.49;100.00
56084;BME280;41958;52.416;13.428;2022-11-06T00:24:50;101308.09;;;4.43;100.00
56084;BME280;41958;52.416;13.428;2022-11-06T00:27:16;101316.91;;;4.45;100.00
56084;BME280;41958;52.416;13.428;2022-11-06T00:29:41;101315.53;;;4.42;100.00
56084;BME280;41958;52.416;13.428;2022-11-06T00:32:07;101306.09;;;4.48;100.00
56084;BME280;41958;52.416;13.428;2022-11-06T00:34:32;101312.97;;;4.51;100.00
56084;BME280;41958;52.416;13.428;2022-11-06T00:36:58;101316.44;;;4.62;100.00
56084;BME280;41958;52.416;13.428;2022-11-06T00:39:23;101301.41;;;4.68;100.00
56084;BME280;41958;52.416;13.428;2022-11-06T00:41:48;101309.72;;;4.68;100.00
56084;BME280;41958;52.416;13.428;2022-11-06T00:44:14;101309.59;;;4.78;100.00
56084;BME280;41958;52.416;13.428;2022-11-06T00:46:39;101314.22;;;4.83;100.00
56084;BME280;41958;52.416;13.428;2022-11-06T00:49:04;101311.69;;;4.86;100.00
56084;BME280;41958;52.416;13.428;2022-11-06T00:51:32;101315.53;;;4.90;100.00
56084;BME280;41958;52.416;13.428;2022-11-06T00:54:01;101315.81;;;4.89;100.00
56084;BME280;41958;52.416;13.428;2022-11-06T00:56:27;101310.88;;;4.86;100.00
56084;BME280;41958;52.416;13.428;2022-11-06T00:58:53;101311.88;;;4.95;100.00
56084;BME280;41958;52.416;13.428;2022-11-06T01:01:24;101301.91;;;4.94;100.00
56084;BME280;41958;52.416;13.428;2022-11-06T01:03:55;101305.78;;;4.93;100.00
56084;BME280;41958;52.416;13.428;2022-11-06T01:06:23;101311.22;;;5.03;100.00
56084;BME280;41958;52.416;13.428;2022-11-06T01:08:49;101314.44;;;5.11;100.00
56084;BME280;41958;52.416;13.428;2022-11-06T01:11:20;101310.75;;;5.15;100.00
56084;BME280;41958;52.416;13.428;2022-11-06T01:13:48;101311.13;;;5.09;100.00
56084;BME280;41958;52.416;13.428;2022-11-06T01:16:14;101305.00;;;5.12;100.00
56084;BME280;41958;52.416;13.428;2022-11-06T01:18:42;101306.34;;;5.14;100.00
56084;BME280;41958;52.416;13.428;2022-11-06T01:21:10;101301.00;;;5.18;100.00
56084;BME280;41958;52.416;13.428;2022-11-06T01:23:36;101308.50;;;5.17;100.00
56084;BME280;41958;52.416;13.428;2022-11-06T01:26:03;101296.31;;;5.18;100.00
56084;BME280;41958;52.416;13.428;2022-11-06T01:28:30;101293.16;;;5.25;100.00
56084;BME280;41958;52.416;13.428;2022-11-06T01:30:55;101293.53;;;5.18;100.00
56084;BME280;41958;52.416;13.428;2022-11-06T01:33:21;101291.34;;;5.15;100.00
56084;BME280;41958;52.416;13.428;2022-11-06T01:35:48;101277.38;;;5.06;100.00
56084;BME280;41958;52.416;13.428;2022-11-06T01:38:14;101282.16;;;5.01;100.00
56084;BME280;41958;52.416;13.428;2022-11-06T01:40:41;101275.25;;;4.98;100.00
56084;BME280;41958;52.416;13.428;2022-11-06T01:43:13;101281.41;;;4.95;100.00
56084;BME280;41958;52.416;13.428;2022-11-06T01:45:39;101286.66;;;4.97;100.00
56084;BME280;41958;52.416;13.428;2022-11-06T01:48:05;101289.19;;;4.93;100.00
56084;BME280;41958;52.416;13.428;2022-11-06T01:50:31;101280.63;;;4.89;100.00
56084;BME280;41958;52.416;13.428;2022-11-06T01:52:56;101271.88;;;4.82;100.00
56084;BME280;41958;52.416;13.428;2022-11-06T01:55:29;101261.41;;;4.79;100.00
56084;BME280;41958;52.416;13.428;2022-11-06T01:57:56;101264.97;;;4.80;100.00
56084;BME280;41958;52.416;13.428;2022-11-06T02:00:24;101264.78;;;4.76;100.00
56084;BME280;41958;52.416;13.428;2022-11-06T02:02:50;101259.00;;;4.72;100.00
56084;BME280;41958;52.416;13.428;2022-11-06T02:05:16;101268.06;;;4.78;100.00
56084;BME280;41958;52.416;13.428;2022-11-06T02:07:42;101260.56;;;4.79;100.00
56084;BME280;41958;52.416;13.428;2022-11-06T02:10:08;101258.09;;;4.77;100.00
56084;BME280;41958;52.416;13.428;2022-11-06T02:15:36;101251.75;;;4.77;100.00
56084;BME280;41958;52.416;13.428;2022-11-06T02:18:17;101245.91;;;4.78;100.00
56084;BME280;41958;52.416;13.428;2022-11-06T02:21:06;101240.13;;;4.75;100.00
56084;BME280;41958;52.416;13.428;2022-11-06T02:23:56;101238.72;;;4.77;100.00
56084;BME280;41958;52.416;13.428;2022-11-06T02:29:19;101241.78;;;4.76;100.00
56084;BME280;41958;52.416;13.428;2022-11-06T02:31:46;101231.31;;;4.72;100.00
56084;BME280;41958;52.416;13.428;2022-11-06T02:34:17;101231.91;;;4.69;100.00
56084;BME280;41958;52.416;13.428;2022-11-06T02:36:50;101233.53;;;4.70;100.00
56084;BME280;41958;52.416;13.428;2022-11-06T02:39:21;101241.03;;;4.70;100.00
56084;BME280;41958;52.416;13.428;2022-11-06T02:41:49;101235.50;;;4.70;100.00
56084;BME280;41958;52.416;13.428;2022-11-06T02:44:21;101224.13;;;4.71;100.00
56084;BME280;41958;52.416;13.428;2022-11-06T02:46:51;101229.59;;;4.77;100.00
56084;BME280;41958;52.416;13.428;2022-11-06T02:49:25;101236.19;;;4.81;100.00
56084;BME280;41958;52.416;13.428;2022-11-06T02:51:56;101243.81;;;4.89;100.00
56084;BME280;41958;52.416;13.428;2022-11-06T02:54:25;101234.41;;;4.90;100.00
56084;BME280;41958;52.416;13.428;2022-11-06T02:56:55;101233.03;;;4.87;100.00
56084;BME280;41958;52.416;13.428;2022-11-06T02:59:25;101235.19;;;4.90;100.00
56084;BME280;41958;52.416;13.428;2022-11-06T03:02:03;101235.44;;;4.94;100.00
56084;BME280;41958;52.416;13.428;2022-11-06T03:04:41;101234.84;;;4.97;100.00
56084;BME280;41958;52.416;13.428;2022-11-06T03:07:22;101228.19;;;4.98;100.00
56084;BME280;41958;52.416;13.428;2022-11-06T03:09:52;101224.88;;;4.96;100.00
56084;BME280;41958;52.416;13.428;2022-11-06T03:12:32;101225.91;;;5.00;100.00
56084;BME280;41958;52.416;13.428;2022-11-06T03:22:53;101233.19;;;4.96;100.00
56084;BME280;41958;52.416;13.428;2022-11-06T03:25:28;101230.41;;;4.96;100.00
56084;BME280;41958;52.416;13.428;2022-11-06T03:28:08;101226.38;;;4.88;100.00
56084;BME280;41958;52.416;13.428;2022-11-06T03:30:40;101230.66;;;4.81;100.00
56084;BME280;41958;52.416;13.428;2022-11-06T03:33:24;101233.19;;;4.77;100.00
56084;BME280;41958;52.416;13.428;2022-11-06T03:35:53;101237.16;;;4.71;100.00
56084;BME280;41958;52.416;13.428;2022-11-06T03:38:29;101240.78;;;4.66;100.00
56084;BME280;41958;52.416;13.428;2022-11-06T03:41:02;101232.50;;;4.66;100.00
56084;BME280;41958;52.416;13.428;2022-11-06T03:43:34;101217.28;;;4.64;100.00
56084;BME280;41958;52.416;13.428;2022-11-06T03:46:01;101225.34;;;4.65;100.00
56084;BME280;41958;52.416;13.428;2022-11-06T03:48:34;101225.34;;;4.65;100.00
56084;BME280;41958;52.416;13.428;2022-11-06T03:51:21;101217.78;;;4.71;100.00
56084;BME280;41958;52.416;13.428;2022-11-06T03:53:52;101222.03;;;4.82;100.00
56084;BME280;41958;52.416;13.428;2022-11-06T03:56:24;101215.69;;;4.82;100.00
56084;BME280;41958;52.416;13.428;2022-11-06T03:58:53;101214.84;;;4.81;100.00
56084;BME280;41958;52.416;13.428;2022-11-06T04:01:24;101215.69;;;4.82;100.00
56084;BME280;41958;52.416;13.428;2022-11-06T04:04:01;101223.88;;;4.87;100.00
56084;BME280;41958;52.416;13.428;2022-11-06T04:06:34;101212.81;;;4.87;100.00
56084;BME280;41958;52.416;13.428;2022-11-06T04:09:03;101214.41;;;4.93;100.00
56084;BME280;41958;52.416;13.428;2022-11-06T04:11:48;101196.72;;;4.89;100.00
56084;BME280;41958;52.416;13.428;2022-11-06T04:14:35;101204.06;;;4.99;100.00
56084;BME280;41958;52.416;13.428;2022-11-06T04:17:06;101210.72;;;4.98;100.00
56084;BME280;41958;52.416;13.428;2022-11-06T04:19:32;101202.19;;;4.94;100.00
56084;BME280;41958;52.416;13.428;2022-11-06T04:22:11;101208.34;;;4.91;100.00
56084;BME280;41958;52.416;13.428;2022-11-06T04:24:55;101203.00;;;4.95;100.00
56084;BME280;41958;52.416;13.428;2022-11-06T04:28:05;101200.25;;;4.95;100.00
56084;BME280;41958;52.416;13.428;2022-11-06T04:30:48;101197.03;;;4.87;100.00
56084;BME280;41958;52.416;13.428;2022-11-06T04:33:26;101190.22;;;4.80;100.00
56084;BME280;41958;52.416;13.428;2022-11-06T04:36:01;101195.03;;;4.74;100.00
56084;BME280;41958;52.416;13.428;2022-11-06T04:38:52;101191.81;;;4.67;100.00
56084;BME280;41958;52.416;13.428;2022-11-06T04:43:51;101196.13;;;4.54;100.00
56084;BME280;41958;52.416;13.428;2022-11-06T04:46:26;101197.59;;;4.46;100.00
56084;BME280;41958;52.416;13.428;2022-11-06T04:48:53;101207.03;;;4.45;100.00
56084;BME280;41958;52.416;13.428;2022-11-06T04:51:23;101208.22;;;4.39;100.00
56084;BME280;41958;52.416;13.428;2022-11-06T04:53:51;101205.50;;;4.34;100.00
56084;BME280;41958;52.416;13.428;2022-11-06T04:56:25;101199.81;;;4.25;100.00
56084;BME280;41958;52.416;13.428;2022-11-06T04:58:52;101191.28;;;4.21;100.00
56084;BME280;41958;52.416;13.428;2022-11-06T05:01:17;101185.53;;;4.18;100.00
56084;BME280;41958;52.416;13.428;2022-11-06T05:03:43;101182.81;;;4.13;100.00
56084;BME280;41958;52.416;13.428;2022-11-06T05:06:08;101182.53;;;4.14;100.00
56084;BME280;41958;52.416;13.428;2022-11-06T05:08:33;101175.75;;;4.01;100.00
56084;BME280;41958;52.416;13.428;2022-11-06T05:10:58;101179.00;;;4.09;100.00
56084;BME280;41958;52.416;13.428;2022-11-06T05:13:24;101178.72;;;4.10;100.00
56084;BME280;41958;52.416;13.428;2022-11-06T05:15:54;101182.59;;;4.09;100.00
56084;BME280;41958;52.416;13.428;2022-11-06T05:18:20;101168.47;;;4.11;100.00
56084;BME280;41958;52.416;13.428;2022-11-06T05:20:45;101160.16;;;4.11;100.00
56084;BME280;41958;52.416;13.428;2022-11-06T05:23:10;101173.69;;;4.12;100.00
56084;BME280;41958;52.416;13.428;2022-11-06T05:25:37;101182.59;;;4.09;100.00
56084;BME280;41958;52.416;13.428;2022-11-06T05:28:04;101179.81;;;4.09;100.00
56084;BME280;41958;52.416;13.428;2022-11-06T05:30:35;101173.22;;;4.05;100.00
56084;BME280;41958;52.416;13.428;2022-11-06T05:33:00;101178.88;;;4.19;100.00
56084;BME280;41958;52.416;13.428;2022-11-06T05:35:26;101177.75;;;4.20;100.00
56084;BME280;41958;52.416;13.428;2022-11-06T05:37:57;101178.09;;;4.13;100.00
56084;BME280;41958;52.416;13.428;2022-11-06T05:40:23;101172.56;;;4.13;100.00
56084;BME280;41958;52.416;13.428;2022-11-06T05:42:48;101178.47;;;4.07;100.00
56084;BME280;41958;52.416;13.428;2022-11-06T05:45:13;101175.47;;;4.03;100.00
56084;BME280;41958;52.416;13.428;2022-11-06T05:47:40;101174.59;;;4.08;100.00
56084;BME280;41958;52.416;13.428;2022-11-06T05:50:06;101180.19;;;4.02;100.00
56084;BME280;41958;52.416;13.428;2022-11-06T05:52:34;101170.41;;;4.10;100.00
56084;BME280;41958;52.416;13.428;2022-11-06T05:54:59;101175.59;;;4.17;100.00
56084;BME280;41958;52.416;13.428;2022-11-06T05:57:24;101173.28;;;4.24;100.00
56084;BME280;41958;52.416;13.428;2022-11-06T05:59:49;101178.44;;;4.31;100.00
56084;BME280;41958;52.416;13.428;2022-11-06T06:02:15;101186.38;;;4.37;100.00
56084;BME280;41958;52.416;13.428;2022-11-06T06:04:40;101177.13;;;4.47;100.00
56084;BME280;41958;52.416;13.428;2022-11-06T06:07:05;101179.59;;;4.49;100.00
56084;BME280;41958;52.416;13.428;2022-11-06T06:09:31;101165.91;;;4.58;100.00
56084;BME280;41958;52.416;13.428;2022-11-06T06:11:56;101183.19;;;4.68;100.00
56084;BME280;41958;52.416;13.428;2022-11-06T06:14:21;101181.78;;;4.71;100.00
56084;BME280;41958;52.416;13.428;2022-11-06T06:16:46;101179.75;;;4.77;100.00
56084;BME280;41958;52.416;13.428;2022-11-06T06:19:12;101183.13;;;4.73;100.00
56084;BME280;41958;52.416;13.428;2022-11-06T06:21:37;101183.81;;;4.65;100.00
56084;BME280;41958;52.416;13.428;2022-11-06T06:24:03;101183.88;;;4.79;100.00
56084;BME280;41958;52.416;13.428;2022-11-06T06:26:29;101185.00;;;4.78;100.00
56084;BME280;41958;52.416;13.428;2022-11-06T06:28:55;101185.34;;;4.71;100.00
56084;BME280;41958;52.416;13.428;2022-11-06T06:31:20;101178.03;;;4.81;100.00
56084;BME280;41958;52.416;13.428;2022-11-06T06:33:45;101180.19;;;4.84;100.00
56084;BME280;41958;52.416;13.428;2022-11-06T06:36:10;101186.78;;;4.88;100.00
56084;BME280;41958;52.416;13.428;2022-11-06T06:38:36;101193.66;;;4.90;100.00
56084;BME280;41958;52.416;13.428;2022-11-06T06:41:03;101189.78;;;4.92;100.00
56084;BME280;41958;52.416;13.428;2022-11-06T06:43:29;101203.56;;;4.97;100.00
56084;BME280;41958;52.416;13.428;2022-11-06T06:45:59;101202.03;;;5.04;100.00
56084;BME280;41958;52.416;13.428;2022-11-06T06:48:24;101208.09;;;5.06;100.00
56084;BME280;41958;52.416;13.428;2022-11-06T06:50:50;101201.13;;;5.09;100.00
56084;BME280;41958;52.416;13.428;2022-11-06T06:53:15;101204.72;;;5.10;100.00
56084;BME280;41958;52.416;13.428;2022-11-06T06:55:40;101208.59;;;5.09;100.00
56084;BME280;41958;52.416;13.428;2022-11-06T06:58:06;101204.03;;;5.18;100.00
56084;BME280;41958;52.416;13.428;2022-11-06T07:00:31;101207.19;;;5.11;100.00
56084;BME280;41958;52.416;13.428;2022-11-06T07:02:57;101205.06;;;5.22;100.00
56084;BME280;41958;52.416;13.428;2022-11-06T07:05:22;101198.09;;;5.24;100.00
56084;BME280;41958;52.416;13.428;2022-11-06T07:07:48;101202.66;;;5.34;100.00
56084;BME280;41958;52.416;13.428;2022-11-06T07:10:14;101202.00;;;5.43;100.00
56084;BME280;41958;52.416;13.428;2022-11-06T07:12:40;101202.72;;;5.48;100.00
56084;BME280;41958;52.416;13.428;2022-11-06T07:15:06;101206.13;;;5.59;100.00
56084;BME280;41958;52.416;13.428;2022-11-06T07:17:31;101218.34;;;5.58;100.00
56084;BME280;41958;52.416;13.428;2022-11-06T07:19:56;101210.84;;;5.58;100.00
56084;BME280;41958;52.416;13.428;2022-11-06T07:22:25;101211.16;;;5.71;100.00
56084;BME280;41958;52.416;13.428;2022-11-06T07:24:50;101220.75;;;5.79;100.00
56084;BME280;41958;52.416;13.428;2022-11-06T07:27:15;101223.34;;;5.89;100.00
56084;BME280;41958;52.416;13.428;2022-11-06T07:29:41;101217.78;;;5.89;100.00
56084;BME280;41958;52.416;13.428;2022-11-06T07:32:09;101206.81;;;5.98;100.00
56084;BME280;41958;52.416;13.428;2022-11-06T07:34:34;101201.28;;;6.12;100.00
56084;BME280;41958;52.416;13.428;2022-11-06T07:37:03;101200.84;;;6.18;100.00
56084;BME280;41958;52.416;13.428;2022-11-06T07:39:29;101196.53;;;6.26;100.00
56084;BME280;41958;52.416;13.428;2022-11-06T07:41:54;101203.75;;;6.27;100.00
56084;BME280;41958;52.416;13.428;2022-11-06T07:44:19;101209.09;;;6.23;100.00
56084;BME280;41958;52.416;13.428;2022-11-06T07:46:44;101199.41;;;6.49;100.00
56084;BME280;41958;52.416;13.428;2022-11-06T07:49:10;101210.00;;;6.61;100.00
56084;BME280;41958;52.416;13.428;2022-11-06T07:51:35;101215.63;;;6.69;100.00
56084;BME280;41958;52.416;13.428;2022-11-06T07:54:00;101216.84;;;6.63;100.00
56084;BME280;41958;52.416;13.428;2022-11-06T07:56:25;101199.88;;;6.79;100.00
56084;BME280;41958;52.416;13.428;2022-11-06T07:58:51;101196.03;;;6.88;100.00
56084;BME280;41958;52.416;13.428;2022-11-06T08:01:16;101195.81;;;6.85;99.38
56084;BME280;41958;52.416;13.428;2022-11-06T08:03:42;101188.06;;;6.96;100.00
56084;BME280;41958;52.416;13.428;2022-11-06T08:06:08;101190.22;;;6.99;99.49
56084;BME280;41958;52.416;13.428;2022-11-06T08:08:34;101187.72;;;7.11;99.71
56084;BME280;41958;52.416;13.428;2022-11-06T08:11:07;101198.75;;;7.02;99.09
56084;BME280;41958;52.416;13.428;2022-11-06T08:13:33;101195.16;;;7.24;99.53
56084;BME280;41958;52.416;13.428;2022-11-06T08:16:02;101189.00;;;7.36;98.42
56084;BME280;41958;52.416;13.428;2022-11-06T08:18:28;101186.84;;;7.24;97.02
56084;BME280;41958;52.416;13.428;2022-11-06T08:20:53;101187.00;;;7.28;98.02
56084;BME280;41958;52.416;13.428;2022-11-06T08:23:18;101180.22;;;7.43;97.43
56084;BME280;41958;52.416;13.428;2022-11-06T08:25:43;101186.53;;;7.57;98.16
56084;BME280;41958;52.416;13.428;2022-11-06T08:28:09;101182.34;;;7.69;96.41
56084;BME280;41958;52.416;13.428;2022-11-06T08:30:34;101192.38;;;7.79;95.24
56084;BME280;41958;52.416;13.428;2022-11-06T08:33:02;101189.38;;;7.98;94.85
56084;BME280;41958;52.416;13.428;2022-11-06T08:35:28;101191.50;;;8.01;94.17
56084;BME280;41958;52.416;13.428;2022-11-06T08:37:53;101185.31;;;8.13;94.61
56084;BME280;41958;52.416;13.428;2022-11-06T08:40:18;101188.59;;;8.15;94.03
56084;BME280;41958;52.416;13.428;2022-11-06T08:42:44;101185.94;;;8.09;93.92
56084;BME280;41958;52.416;13.428;2022-11-06T08:45:10;101181.56;;;8.26;93.89
56084;BME280;41958;52.416;13.428;2022-11-06T08:47:35;101181.47;;;8.40;94.11
56084;BME280;41958;52.416;13.428;2022-11-06T08:50:00;101164.63;;;8.45;93.72
56084;BME280;41958;52.416;13.428;2022-11-06T08:52:25;101167.25;;;8.50;92.97
56084;BME280;41958;52.416;13.428;2022-11-06T08:54:51;101151.19;;;8.47;92.33
56084;BME280;41958;52.416;13.428;2022-11-06T08:57:16;101153.66;;;8.66;92.99
56084;BME280;41958;52.416;13.428;2022-11-06T08:59:42;101157.75;;;8.51;93.10
56084;BME280;41958;52.416;13.428;2022-11-06T09:02:14;101157.94;;;8.64;92.58
56084;BME280;41958;52.416;13.428;2022-11-06T09:04:42;101147.28;;;8.92;91.43
56084;BME280;41958;52.416;13.428;2022-11-06T09:07:07;101147.13;;;8.97;91.96
56084;BME280;41958;52.416;13.428;2022-11-06T09:09:33;101150.09;;;8.83;91.22
56084;BME280;41958;52.416;13.428;2022-11-06T09:11:59;101152.19;;;8.86;91.37
56084;BME280;41958;52.416;13.428;2022-11-06T09:14:25;101145.31;;;9.01;90.05
56084;BME280;41958;52.416;13.428;2022-11-06T09:16:50;101154.97;;;9.04;89.16
56084;BME280;41958;52.416;13.428;2022-11-06T09:19:16;101157.59;;;9.18;89.70
56084;BME280;41958;52.416;13.428;2022-11-06T09:21:41;101150.03;;;9.18;88.82
56084;BME280;41958;52.416;13.428;2022-11-06T09:24:07;101154.22;;;9.51;88.73
56084;BME280;41958;52.416;13.428;2022-11-06T09:26:32;101155.06;;;9.51;88.16
56084;BME280;41958;52.416;13.428;2022-11-06T09:28:57;101149.31;;;9.56;87.14
56084;BME280;41958;52.416;13.428;2022-11-06T09:31:22;101150.63;;;9.50;86.90
56084;BME280;41958;52.416;13.428;2022-11-06T09:33:47;101153.03;;;9.69;86.83
56084;BME280;41958;52.416;13.428;2022-11-06T09:36:13;101155.41;;;9.88;85.41
56084;BME280;41958;52.416;13.428;2022-11-06T09:38:38;101161.28;;;9.95;85.32
56084;BME280;41958;52.416;13.428;2022-11-06T09:41:04;101151.72;;;9.75;85.39
56084;BME280;41958;52.416;13.428;2022-11-06T09:46:28;101163.00;;;9.88;84.86
56084;BME280;41958;52.416;13.428;2022-11-06T09:52:01;101157.84;;;10.28;84.11
56084;BME280;41958;52.416;13.428;2022-11-06T09:54:33;101159.28;;;10.43;82.56
56084;BME280;41958;52.416;13.428;2022-11-06T09:57:09;101153.25;;;10.24;83.26
56084;BME280;41958;52.416;13.428;2022-11-06T09:59:36;101152.31;;;10.50;82.66
56084;BME280;41958;52.416;13.428;2022-11-06T10:02:19;101159.50;;;10.29;83.41
56084;BME280;41958;52.416;13.428;2022-11-06T10:05:01;101157.16;;;10.32;83.49
56084;BME280;41958;52.416;13.428;2022-11-06T10:07:31;101157.00;;;10.37;83.20
56084;BME280;41958;52.416;13.428;2022-11-06T10:09:58;101149.28;;;10.63;83.18
56084;BME280;41958;52.416;13.428;2022-11-06T10:15:30;101138.63;;;10.57;83.59
56084;BME280;41958;52.416;13.428;2022-11-06T10:20:45;101143.22;;;10.83;80.33
56084;BME280;41958;52.416;13.428;2022-11-06T10:23:18;101144.72;;;10.80;81.48
56084;BME280;41958;52.416;13.428;2022-11-06T10:25:59;101132.06;;;10.95;79.90
56084;BME280;41958;52.416;13.428;2022-11-06T10:28:39;101123.09;;;10.89;80.70
56084;BME280;41958;52.416;13.428;2022-11-06T10:33:51;101119.69;;;10.62;81.45
56084;BME280;41958;52.416;13.428;2022-11-06T10:36:23;101124.59;;;10.66;80.67
56084;BME280;41958;52.416;13.428;2022-11-06T10:38:53;101121.44;;;10.67;80.43
56084;BME280;41958;52.416;13.428;2022-11-06T10:41:22;101105.16;;;10.69;82.10
56084;BME280;41958;52.416;13.428;2022-11-06T10:43:55;101099.78;;;10.64;82.42
56084;BME280;41958;52.416;13.428;2022-11-06T10:48:57;101103.91;;;10.79;80.47
56084;BME280;41958;52.416;13.428;2022-11-06T10:51:46;101090.28;;;10.77;82.43
56084;BME280;41958;52.416;13.428;2022-11-06T10:54:34;101080.34;;;10.68;81.47
56084;BME280;41958;52.416;13.428;2022-11-06T10:59:40;101092.84;;;10.70;81.46
56084;BME280;41958;52.416;13.428;2022-11-06T11:02:22;101067.53;;;10.67;81.48
56084;BME280;41958;52.416;13.428;2022-11-06T11:04:48;101077.72;;;10.84;81.64
56084;BME280;41958;52.416;13.428;2022-11-06T11:07:14;101077.59;;;10.80;81.07
56084;BME280;41958;52.416;13.428;2022-11-06T11:09:39;101077.47;;;10.76;80.88
56084;BME280;41958;52.416;13.428;2022-11-06T11:12:18;101065.63;;;10.92;80.56
56084;BME280;41958;52.416;13.428;2022-11-06T11:15:04;101071.16;;;11.01;79.44
56084;BME280;41958;52.416;13.428;2022-11-06T11:17:30;101066.25;;;10.98;81.11
56084;BME280;41958;52.416;13.428;2022-11-06T11:19:55;101057.06;;;11.09;80.55
56084;BME280;41958;52.416;13.428;2022-11-06T11:22:20;101052.97;;;11.07;81.34
56084;BME280;41958;52.416;13.428;2022-11-06T11:24:59;101044.81;;;11.02;80.74
56084;BME280;41958;52.416;13.428;2022-11-06T11:27:26;101040.97;;;11.06;81.10
56084;BME280;41958;52.416;13.428;2022-11-06T11:29:52;101044.75;;;11.23;81.07
56084;BME280;41958;52.416;13.428;2022-11-06T11:32:19;101042.66;;;11.20;80.88
56084;BME280;41958;52.416;13.428;2022-11-06T11:34:48;101039.38;;;11.18;79.54
56084;BME280;41958;52.416;13.428;2022-11-06T11:37:31;101046.88;;;11.26;79.95
56084;BME280;41958;52.416;13.428;2022-11-06T11:42:47;101035.78;;;11.29;79.97
56084;BME280;41958;52.416;13.428;2022-11-06T11:45:14;101019.22;;;11.24;79.78
56084;BME280;41958;52.416;13.428;2022-11-06T11:47:42;101036.13;;;11.40;79.05
56084;BME280;41958;52.416;13.428;2022-11-06T11:52:48;101027.88;;;11.32;79.12
56084;BME280;41958;52.416;13.428;2022-11-06T11:55:16;101024.72;;;11.33;78.51
56084;BME280;41958;52.416;13.428;2022-11-06T11:57:47;101022.72;;;11.34;78.86
56084;BME280;41958;52.416;13.428;2022-11-06T12:00:16;101025.66;;;11.50;77.84
56084;BME280;41958;52.416;13.428;2022-11-06T12:02:45;101025.44;;;11.55;79.28
56084;BME280;41958;52.416;13.428;2022-11-06T12:05:15;101022.63;;;11.55;78.49
56084;BME280;41958;52.416;13.428;2022-11-06T12:07:43;101010.94;;;11.53;78.26
56084;BME280;41958;52.416;13.428;2022-11-06T12:13:06;100994.16;;;11.65;76.74
56084;BME280;41958;52.416;13.428;2022-11-06T12:15:44;100995.00;;;11.53;78.38
56084;BME280;41958;52.416;13.428;2022-11-06T12:18:17;100987.88;;;11.56;77.92
56084;BME280;41958;52.416;13.428;2022-11-06T12:20:58;100984.59;;;11.54;77.84
56084;BME280;41958;52.416;13.428;2022-11-06T12:23:46;100977.13;;;11.58;77.22
56084;BME280;41958;52.416;13.428;2022-11-06T12:26:23;100969.91;;;11.57;76.27
56084;BME280;41958;52.416;13.428;2022-11-06T12:28:54;100975.75;;;11.52;77.53
56084;BME280;41958;52.416;13.428;2022-11-06T12:33:59;100969.09;;;11.56;77.16
56084;BME280;41958;52.416;13.428;2022-11-06T12:36:29;100970.72;;;11.57;76.76
56084;BME280;41958;52.416;13.428;2022-11-06T12:39:03;100969.19;;;11.72;77.08
56084;BME280;41958;52.416;13.428;2022-11-06T12:41:33;100959.28;;;11.75;76.27
56084;BME280;41958;52.416;13.428;2022-11-06T12:43:59;100962.66;;;11.80;76.92
56084;BME280;41958;52.416;13.428;2022-11-06T12:46:38;100961.38;;;11.66;77.50
56084;BME280;41958;52.416;13.428;2022-11-06T12:49:23;100968.84;;;11.74;76.42
56084;BME280;41958;52.416;13.428;2022-11-06T12:52:13;100965.34;;;11.64;76.58
56084;BME280;41958;52.416;13.428;2022-11-06T12:55:12;100961.75;;;11.64;75.29
56084;BME280;41958;52.416;13.428;2022-11-06T13:01:12;100957.06;;;11.43;76.72
56084;BME280;41958;52.416;13.428;2022-11-06T13:07:02;100950.91;;;11.62;76.47
56084;BME280;41958;52.416;13.428;2022-11-06T13:10:19;100946.22;;;11.54;77.31
56084;BME280;41958;52.416;13.428;2022-11-06T13:15:41;100948.81;;;11.47;76.07
56084;BME280;41958;52.416;13.428;2022-11-06T13:18:34;100942.16;;;11.52;75.08
56084;BME280;41958;52.416;13.428;2022-11-06T13:21:18;100944.97;;;11.52;76.05
56084;BME280;41958;52.416;13.428;2022-11-06T13:23:50;100936.66;;;11.55;75.56
56084;BME280;41958;52.416;13.428;2022-11-06T13:26:29;100931.78;;;11.52;75.37
56084;BME280;41958;52.416;13.428;2022-11-06T13:29:02;100930.13;;;11.63;75.65
56084;BME280;41958;52.416;13.428;2022-11-06T13:31:34;100926.72;;;11.70;74.07
56084;BME280;41958;52.416;13.428;2022-11-06T13:34:01;100920.47;;;11.48;75.10
56084;BME280;41958;52.416;13.428;2022-11-06T13:36:29;100907.88;;;11.55;75.26
56084;BME280;41958;52.416;13.428;2022-11-06T13:41:29;100908.91;;;11.50;76.03
56084;BME280;41958;52.416;13.428;2022-11-06T13:44:08;100906.72;;;11.56;76.16
56084;BME280;41958;52.416;13.428;2022-11-06T13:47:04;100904.00;;;11.59;74.90
56084;BME280;41958;52.416;13.428;2022-11-06T13:49:47;100893.28;;;11.61;75.03
56084;BME280;41958;52.416;13.428;2022-11-06T13:55:18;100883.72;;;11.50;75.81